Flight Track Log - Related Links

Times and Time Zones

All times are in EDT time to prevent confusion due to time zone crossing. See the TAI570 flight status page for this flight to view local times or setup timezone preferences in your user account.

Time Position Orientation Groundspeed Altitude Reporting Facility
EDT Latitude Longitude Course Direction KTS MPH feet Rate Location/Type
Mon 05:24:57 PM 13.4300 -88.8530 93° East 245 282 7,400  Level FlightAware ADS-B
Mon 05:25:07 PM 13.4290 -88.8430 96° East 245 282 7,800 2,743 Climbing FlightAware ADS-B
Mon 05:25:32 PM 13.4280 -88.8150 92° East 246 283 9,000 2,800 Climbing FlightAware ADS-B
Mon 05:25:52 PM 13.4370 -88.7920 68° East 248 285 9,900 2,400 Climbing FlightAware ADS-B
Mon 05:26:07 PM 13.4500 -88.7830 34° Northeast 251 289 10,400 1,636 Climbing FlightAware ADS-B
Mon 05:26:47 PM 13.4990 -88.7690 16° North 290 334 11,400 1,275 Climbing FlightAware ADS-B
Mon 05:27:27 PM 13.5560 -88.7550 13° North 334 384 12,100 884 Climbing FlightAware ADS-B
Mon 05:28:22 PM 13.6390 -88.7330 14° North 357 411 12,800 442 Climbing FlightAware ADS-B
Mon 05:29:02 PM 13.6940 -88.7190 14° North 357 411 12,800  Level FlightAware ADS-B
Mon 05:29:42 PM 13.7480 -88.7050 14° North 357 411 12,800 3,533 Level FlightAware ADS-B
Mon 05:30:32 PM 13.8610 -88.6730 15° North 383 441 18,100 4,267 Climbing FlightAware ADS-B
Mon 05:31:12 PM 13.9300 -88.6540 15° North 387 445 19,200 1,765 Climbing FlightAware ADS-B
Mon 05:31:57 PM 14.0110 -88.6310 15° North 398 458 20,600 1,906 Climbing FlightAware ADS-B
Mon 05:32:37 PM 14.0840 -88.6120 14° North 396 456 21,900 1,520 Climbing FlightAware ADS-B
Mon 05:33:12 PM 14.1470 -88.5940 15° North 400 460 22,500 1,059 Climbing FlightAware ADS-B
Mon 05:34:02 PM 14.2400 -88.5690 15° North 420 483 23,400 1,086 Climbing FlightAware ADS-B
Mon 05:34:57 PM 14.3450 -88.5400 15° North 434 499 24,400 1,200 Climbing FlightAware ADS-B
Mon 05:35:37 PM 14.4240 -88.5180 15° North 436 502 25,300 1,200 Climbing FlightAware ADS-B
Mon 05:36:22 PM 14.5120 -88.4940 15° North 446 513 26,100 960 Climbing FlightAware ADS-B
Mon 05:36:52 PM 14.5740 -88.4770 15° North 446 513 26,500 282 Climbing FlightAware ADS-B
Mon 05:37:47 PM 14.6690 -88.4500 15° North 446 513 26,500  Level FlightAware ADS-B
Mon 05:38:27 PM 14.7360 -88.4320 15° North 446 513 26,500 1,271 Level FlightAware ADS-B
Mon 05:39:12 PM 14.8500 -88.4000 15° North 465 535 28,300 1,271 Climbing FlightAware ADS-B
Mon 05:39:52 PM 14.9210 -88.3810 14° North 465 535 28,300  Level FlightAware ADS-B
Mon 05:40:32 PM 14.9910 -88.3610 15° North 465 535 28,300  Level FlightAware ADS-B
Mon 05:41:12 PM 15.0620 -88.3420 14° North 465 535 28,300  Level FlightAware ADS-B
Mon 05:41:52 PM 15.1330 -88.3220 15° North 465 535 28,300  Level FlightAware ADS-B
Mon 05:42:42 PM 15.2210 -88.2970 15° North 465 535 28,300 408 Level FlightAware ADS-B
Mon 05:45:00 PM 15.5042 -88.1847 21° North  Level FlightAware Approximate
Mon 05:46:00 PM 15.6272 -88.1358 21° North  Level FlightAware Approximate
Mon 05:47:00 PM 15.7499 -88.0854 22° Northeast  Level FlightAware Approximate
Mon 05:48:00 PM 15.8725 -88.0350 22° Northeast  Level FlightAware Approximate
Mon 05:49:00 PM 15.9950 -87.9845 22° Northeast  Level FlightAware Approximate
Mon 05:50:00 PM 16.1175 -87.9339 22° Northeast  Level FlightAware Approximate
Mon 05:51:00 PM 16.2400 -87.8833 22° Northeast  Level FlightAware Approximate
Mon 05:52:00 PM 16.3626 -87.8326 22° Northeast  Level FlightAware Approximate
Mon 05:53:00 PM 16.4850 -87.7819 22° Northeast  Level FlightAware Approximate
Mon 05:54:00 PM 16.6075 -87.7311 22° Northeast  Level FlightAware Approximate
Mon 05:55:00 PM 16.7300 -87.6802 22° Northeast  Level FlightAware Approximate
Mon 05:56:00 PM 16.8524 -87.6292 22° Northeast  Level FlightAware Approximate
Mon 05:57:00 PM 16.9749 -87.5782 22° Northeast  Level FlightAware Approximate
Mon 05:58:00 PM 17.0973 -87.5272 22° Northeast  Level FlightAware Approximate
Mon 05:59:00 PM 17.2197 -87.4760 22° Northeast  Level FlightAware Approximate
Mon 06:00:00 PM 17.3421 -87.4248 22° Northeast  Level FlightAware Approximate
Mon 06:01:00 PM 17.4645 -87.3735 22° Northeast  Level FlightAware Approximate
Mon 06:02:00 PM 17.5869 -87.3222 22° Northeast  Level FlightAware Approximate
Mon 06:03:00 PM 17.7093 -87.2708 22° Northeast  Level FlightAware Approximate
Mon 06:03:12 PM 17.9460 -87.5310 22° Northeast 483 556 37,000  Level FlightAware ADS-B
Mon 06:03:52 PM 18.0320 -87.5060 15° North 484 557 37,000  Level FlightAware ADS-B
Mon 06:04:27 PM 18.1060 -87.4850 15° North 484 557 37,000  Level FlightAware ADS-B
Mon 06:05:17 PM 18.2090 -87.4560 15° North 484 557 37,000  Level FlightAware ADS-B
Mon 06:05:57 PM 18.3010 -87.4290 16° North 485 558 37,000  Level FlightAware ADS-B
Mon 06:06:42 PM 18.3930 -87.4030 15° North 485 558 37,000  Level FlightAware ADS-B
Mon 06:07:22 PM 18.4670 -87.3820 15° North 485 558 37,000  Level FlightAware ADS-B
Mon 06:08:02 PM 18.5400 -87.3620 15° North 485 558 37,000  Level FlightAware ADS-B
Mon 06:08:57 PM 18.6880 -87.3400 North 481 554 37,000  Level FlightAware ADS-B
Mon 06:09:37 PM 18.7630 -87.3250 11° North 481 554 37,000  Level FlightAware ADS-B
Mon 06:10:17 PM 18.8370 -87.3090 12° North 481 554 37,000  Level FlightAware ADS-B
Mon 06:11:07 PM 18.9300 -87.2900 11° North 481 554 37,000  Level FlightAware ADS-B
Mon 06:11:47 PM 19.0040 -87.2750 11° North 481 554 37,000  Level FlightAware ADS-B
Mon 06:12:32 PM 19.1710 -87.2370 12° North 489 563 37,000  Level FlightAware ADS-B
Mon 06:13:12 PM 19.2580 -87.2180 12° North 490 564 37,000  Level FlightAware ADS-B
Mon 06:13:57 PM 19.3620 -87.1960 11° North 490 564 37,000  Level FlightAware ADS-B
Mon 06:14:37 PM 19.4490 -87.1770 12° North 490 564 37,000  Level FlightAware ADS-B
Mon 06:15:22 PM 19.5490 -87.1550 12° North 490 564 37,000  Level FlightAware ADS-B
Mon 06:16:02 PM 19.6390 -87.1360 11° North 490 564 37,000  Level FlightAware ADS-B
Mon 06:16:42 PM 19.7270 -87.1170 11° North 490 564 37,000  Level FlightAware ADS-B
Mon 06:17:27 PM 19.8300 -87.0950 11° North 489 563 37,000  Level FlightAware ADS-B
Mon 06:18:07 PM 19.9180 -87.0760 11° North 490 564 37,000  Level FlightAware ADS-B
Mon 06:18:52 PM 20.0180 -87.0540 12° North 491 565 37,000  Level FlightAware ADS-B
Mon 06:19:32 PM 20.1080 -87.0340 12° North 493 567 37,000  Level FlightAware ADS-B
Mon 06:20:12 PM 20.1960 -87.0150 11° North 495 570 37,000  Level FlightAware ADS-B
Mon 06:20:57 PM 20.2950 -86.9940 11° North 498 573 37,000  Level FlightAware ADS-B
Mon 06:21:37 PM 20.3930 -86.9730 11° North 500 575 37,000  Level FlightAware ADS-B
Mon 06:22:22 PM 20.4920 -86.9510 12° North 501 577 37,000  Level FlightAware ADS-B
Mon 06:23:02 PM 20.5810 -86.9310 12° North 500 575 37,000  Level FlightAware ADS-B
Mon 06:23:42 PM 20.6730 -86.9110 11° North 500 575 37,000  Level FlightAware ADS-B
Mon 06:24:27 PM 20.7780 -86.8880 12° North 501 577 37,000  Level FlightAware ADS-B
Mon 06:25:07 PM 20.8710 -86.8680 11° North 500 575 37,000  Level FlightAware ADS-B
Mon 06:25:52 PM 20.9670 -86.8470 12° North 499 574 37,000  Level FlightAware ADS-B
Mon 06:26:32 PM 21.0600 -86.8270 11° North 499 574 37,000  Level FlightAware ADS-B
Mon 06:27:12 PM 21.1500 -86.8070 12° North 499 574 37,000  Level FlightAware ADS-B
Mon 06:27:57 PM 21.2550 -86.7840 12° North 497 572 37,000  Level FlightAware ADS-B
Mon 06:28:37 PM 21.3460 -86.7640 12° North 496 571 37,000  Level FlightAware ADS-B
Mon 06:29:12 PM 21.4210 -86.7470 12° North 495 570 37,000  Level FlightAware ADS-B
Mon 06:29:57 PM 21.5230 -86.7250 11° North 495 570 37,000  Level FlightAware ADS-B
Mon 06:30:37 PM 21.6130 -86.7050 12° North 493 567 37,000  Level FlightAware ADS-B
Mon 06:31:17 PM 21.7030 -86.6850 12° North 492 566 37,000  Level FlightAware ADS-B
Mon 06:32:02 PM 21.8050 -86.6620 12° North 491 565 37,000  Level FlightAware ADS-B
Mon 06:32:42 PM 21.8940 -86.6420 12° North 490 564 37,000  Level FlightAware ADS-B
Mon 06:33:27 PM 21.9920 -86.6210 11° North 491 565 37,000  Level FlightAware ADS-B
Mon 06:34:07 PM 22.0830 -86.6010 12° North 493 567 37,000  Level FlightAware ADS-B
Mon 06:34:47 PM 22.1710 -86.5810 12° North 493 567 37,000  Level FlightAware ADS-B
Mon 06:35:32 PM 22.2710 -86.5580 12° North 493 567 37,000  Level FlightAware ADS-B
Mon 06:36:12 PM 22.3640 -86.5380 11° North 492 566 37,000 75 Level FlightAware ADS-B
Mon 06:36:52 PM 22.4520 -86.5180 12° North 485 558 37,100 75 Climbing FlightAware ADS-B
Mon 06:37:32 PM 22.5400 -86.4980 12° North 478 550 37,100 -75 Level FlightAware ADS-B
Mon 06:38:12 PM 22.6260 -86.4790 12° North 475 547 37,000 -75 Descending FlightAware ADS-B
Mon 06:38:52 PM 22.7110 -86.4600 12° North 471 542 37,000  Level FlightAware ADS-B
Mon 06:39:37 PM 22.8050 -86.4390 12° North 469 540 37,000  Level FlightAware ADS-B
Mon 06:40:17 PM 22.8920 -86.4190 12° North 468 539 37,000  Level FlightAware ADS-B
Mon 06:41:02 PM 22.9870 -86.3980 12° North 466 536 37,000  Level FlightAware ADS-B
Mon 06:41:42 PM 23.0740 -86.3780 12° North 465 535 37,000  Level FlightAware ADS-B
Mon 06:42:22 PM 23.1570 -86.3590 12° North 465 535 37,000  Level FlightAware ADS-B
Mon 06:43:07 PM 23.2510 -86.3380 12° North 465 535 37,000  Level FlightAware ADS-B
Mon 06:43:47 PM 23.3370 -86.3180 12° North 464 534 37,000  Level FlightAware ADS-B
Mon 06:44:27 PM 23.4210 -86.2990 12° North 462 532 37,000  Level FlightAware ADS-B
Mon 06:45:02 PM 23.4880 -86.2840 12° North 462 532 37,000  Level FlightAware ADS-B
Mon 06:45:52 PM 23.6000 -86.2590 12° North 462 532 37,000  Level FlightAware ADS-B
Mon 06:46:37 PM 23.6930 -86.2380 12° North 463 533 37,000  Level FlightAware ADS-B
Mon 06:47:17 PM 23.7760 -86.2180 12° North 463 533 37,000  Level FlightAware ADS-B
Mon 06:47:57 PM 23.8580 -86.2000 11° North 463 533 37,000  Level FlightAware ADS-B
Mon 06:48:42 PM 23.9510 -86.1780 12° North 465 535 37,000  Level FlightAware ADS-B
Mon 06:49:22 PM 24.0410 -86.1490 16° North 476 548 37,000  Level FlightAware ADS-B
Mon 06:50:07 PM 24.1300 -86.1030 25° Northeast 487 560 37,000  Level FlightAware ADS-B
Mon 06:50:47 PM 24.2070 -86.0550 30° Northeast 488 562 37,000  Level FlightAware ADS-B
Mon 06:51:32 PM 24.2990 -85.9980 29° Northeast 489 563 37,000  Level FlightAware ADS-B
Mon 06:52:12 PM 24.3760 -85.9510 29° Northeast 490 564 37,000  Level FlightAware ADS-B
Mon 06:53:02 PM 24.4700 -85.8920 30° Northeast 491 565 37,000  Level FlightAware ADS-B
Mon 06:53:52 PM 24.5550 -85.8410 29° Northeast 491 565 37,000  Level FlightAware ADS-B
Mon 06:54:32 PM 24.6220 -85.7990 30° Northeast 491 565 37,000  Level FlightAware ADS-B
Mon 06:55:12 PM 24.6900 -85.7580 29° Northeast 491 565 37,000  Level FlightAware ADS-B
Mon 06:55:52 PM 24.7580 -85.7170 29° Northeast 491 565 37,000  Level FlightAware ADS-B
Mon 06:56:32 PM 24.8250 -85.6760 29° Northeast 491 565 37,000  Level FlightAware ADS-B
Mon 06:57:22 PM 24.9100 -85.6240 29° Northeast 491 565 37,000  Level FlightAware ADS-B
Mon 06:58:02 PM 24.9770 -85.5830 29° Northeast 491 565 37,000  Level FlightAware ADS-B
Mon 06:58:42 PM 25.0450 -85.5410 29° Northeast 491 565 37,000  Level FlightAware ADS-B
Mon 06:59:22 PM 25.1120 -85.5000 29° Northeast 491 565 37,000  Level FlightAware ADS-B
Mon 07:00:02 PM 25.1800 -85.4590 29° Northeast 491 565 37,000  Level FlightAware ADS-B
Mon 07:00:42 PM 25.2470 -85.4170 30° Northeast 491 565 37,000  Level FlightAware ADS-B
Mon 07:01:12 PM 25.2980 -85.3860 29° Northeast 491 565 37,000  Level FlightAware ADS-B
Mon 07:02:02 PM 25.3820 -85.3350 29° Northeast 491 565 37,000  Level FlightAware ADS-B
Mon 07:02:32 PM 25.4330 -85.3030 30° Northeast 491 565 37,000  Level FlightAware ADS-B
Mon 07:02:55 PM 25.6800 -85.3106 30° Northeast 471 542 37,000  Level Houston Center
Mon 07:03:34 PM 25.7614 -85.3044 North 468 539 37,000 -61 Level Miami Center
Mon 07:04:34 PM 25.8872 -85.2903 North 463 533 36,900 -33 Descending Miami Center
Mon 07:06:00 PM 26.0099 -85.2679 North  Level FlightAware Approximate
Mon 07:06:34 PM 26.1400 -85.2483 North 457 526 36,900  Level Miami Center
Mon 07:07:34 PM 26.2436 -85.1469 41° Northeast 463 533 36,900  Level Miami Center
Mon 07:08:34 PM 26.3494 -85.0456 41° Northeast 476 548 36,900  Level Miami Center
Mon 07:09:34 PM 26.4550 -84.9464 40° Northeast 486 559 36,900 39 Level Miami Center
Mon 07:11:09 PM 26.6153 -84.7839 42° Northeast 498 573 37,000 14 Climbing Houston Center
Mon 07:16:52 PM 27.2300 -84.1880 42° Northeast 498 573 37,000  Level FlightAware ADS-B
Mon 07:17:37 PM 27.3050 -84.1150 41° Northeast 493 567 37,000  Level FlightAware ADS-B
Mon 07:18:17 PM 27.3720 -84.0480 42° Northeast 495 570 37,000  Level FlightAware ADS-B
Mon 07:19:02 PM 27.4540 -83.9680 41° Northeast 497 572 37,000  Level FlightAware ADS-B
Mon 07:19:42 PM 27.5230 -83.9000 41° Northeast 497 572 37,000  Level FlightAware ADS-B
Mon 07:20:22 PM 27.5940 -83.8290 42° Northeast 497 572 37,000  Level FlightAware ADS-B
Mon 07:21:07 PM 27.6720 -83.7520 41° Northeast 497 572 37,000  Level FlightAware ADS-B
Mon 07:21:52 PM 27.7490 -83.6750 42° Northeast 499 574 37,000  Level FlightAware ADS-B
Mon 07:22:32 PM 27.8210 -83.6030 41° Northeast 500 575 37,000  Level FlightAware ADS-B
Mon 07:23:12 PM 27.8910 -83.5330 41° Northeast 500 575 37,000  Level FlightAware ADS-B
Mon 07:23:57 PM 27.9770 -83.4620 36° Northeast 496 571 37,000  Level FlightAware ADS-B
Mon 07:24:37 PM 28.0550 -83.4140 29° Northeast 479 551 37,000  Level FlightAware ADS-B
Mon 07:25:12 PM 28.1280 -83.3800 22° Northeast 477 549 37,000  Level FlightAware ADS-B
Mon 07:26:02 PM 28.2330 -83.3440 17° North 474 545 37,000  Level FlightAware ADS-B
Mon 07:26:42 PM 28.3160 -83.3160 17° North 467 537 37,000  Level FlightAware ADS-B
Mon 07:27:27 PM 28.4120 -83.2840 16° North 467 537 37,000  Level FlightAware ADS-B
Mon 07:28:07 PM 28.4960 -83.2550 17° North 474 545 37,000  Level FlightAware ADS-B
Mon 07:28:47 PM 28.5780 -83.2270 17° North 468 539 37,000  Level FlightAware ADS-B
Mon 07:29:32 PM 28.6760 -83.1930 17° North 472 543 37,000  Level FlightAware ADS-B
Mon 07:30:27 PM 28.7920 -83.1530 17° North 484 557 37,000  Level FlightAware ADS-B
Mon 07:31:12 PM 28.8910 -83.1190 17° North 486 559 37,000  Level FlightAware ADS-B
Mon 07:31:52 PM 28.9760 -83.0890 17° North 488 562 37,000  Level FlightAware ADS-B
Mon 07:32:27 PM 29.0530 -83.0630 16° North 489 563 37,000  Level FlightAware ADS-B
Mon 07:33:17 PM 29.1590 -83.0260 17° North 489 563 37,000  Level FlightAware ADS-B
Mon 07:34:07 PM 29.2670 -82.9890 17° North 489 563 37,000  Level FlightAware ADS-B
Mon 07:34:52 PM 29.3670 -82.9540 17° North 490 564 37,000  Level FlightAware ADS-B
Mon 07:35:37 PM 29.4630 -82.9200 17° North 489 563 37,000  Level FlightAware ADS-B
Mon 07:36:32 PM 29.5770 -82.8800 17° North 490 564 37,000  Level FlightAware ADS-B
Mon 07:37:12 PM 29.6510 -82.8540 17° North 490 564 37,000  Level FlightAware ADS-B
Mon 07:37:52 PM 29.7240 -82.8280 17° North 490 564 37,000  Level FlightAware ADS-B
Mon 07:38:42 PM 29.8170 -82.7960 17° North 490 564 37,000  Level FlightAware ADS-B
Mon 07:39:12 PM 29.9360 -82.7550 17° North 493 567 37,000  Level FlightAware ADS-B
Mon 07:40:07 PM 30.0440 -82.7170 17° North 493 567 37,000 67 Level FlightAware ADS-B
Mon 07:40:42 PM 30.1280 -82.6860 18° North 488 562 37,100 80 Climbing FlightAware ADS-B
Mon 07:41:22 PM 30.2020 -82.6600 17° North 488 562 37,100  Level FlightAware ADS-B
Mon 07:42:12 PM 30.2940 -82.6280 17° North 488 562 37,100  Level FlightAware ADS-B
Mon 07:42:52 PM 30.3670 -82.6020 17° North 488 562 37,100 -31 Level FlightAware ADS-B
Mon 07:45:26 PM 30.6975 -82.3586 41° Northeast 500 575 37,000 -28 Descending Jacksonville Center
Mon 07:46:26 PM 30.8161 -82.2394 41° Northeast 505 581 37,000  Level Jacksonville Center
Mon 07:47:26 PM 30.9239 -82.1272 42° Northeast 511 588 37,000  Level Jacksonville Center
Mon 07:48:26 PM 31.0319 -82.0172 41° Northeast 511 588 37,000  Level Jacksonville Center
Mon 07:50:00 PM 31.0490 -81.9879 41° Northeast  Level FlightAware Approximate
Mon 07:54:02 PM 31.6010 -81.4230 41° Northeast 509 586 37,000  Level FlightAware ADS-B
Mon 07:54:42 PM 31.6820 -81.3370 42° Northeast 508 585 37,000  Level FlightAware ADS-B
Mon 07:55:42 PM 31.7850 -81.2320 41° Northeast 508 585 37,000  Level FlightAware ADS-B
Mon 07:56:17 PM 31.8660 -81.1540 39° Northeast 510 587 37,000  Level FlightAware ADS-B
Mon 07:57:07 PM 31.9570 -81.0640 40° Northeast 513 590 37,000  Level FlightAware ADS-B
Mon 07:58:02 PM 32.0580 -80.9650 40° Northeast 515 593 37,000  Level FlightAware ADS-B
Mon 07:58:42 PM 32.1290 -80.8940 40° Northeast 515 593 37,000  Level FlightAware ADS-B
Mon 07:59:27 PM 32.2100 -80.8120 41° Northeast 515 593 37,000  Level FlightAware ADS-B
Mon 08:00:07 PM 32.2840 -80.7380 40° Northeast 513 590 37,000  Level FlightAware ADS-B
Mon 08:00:52 PM 32.3650 -80.6570 40° Northeast 510 587 37,000  Level FlightAware ADS-B
Mon 08:01:32 PM 32.4380 -80.5840 40° Northeast 507 583 37,000  Level FlightAware ADS-B
Mon 08:02:12 PM 32.5080 -80.5130 41° Northeast 505 581 37,000  Level FlightAware ADS-B
Mon 08:02:57 PM 32.5880 -80.4320 40° Northeast 503 579 37,000  Level FlightAware ADS-B
Mon 08:03:37 PM 32.6590 -80.3610 40° Northeast 502 578 37,000 -71 Level FlightAware ADS-B
Mon 08:04:22 PM 32.7370 -80.2820 40° Northeast 503 579 36,900  Descending FlightAware ADS-B
Mon 08:05:02 PM 32.8090 -80.2090 40° Northeast 504 580 37,000 75 Climbing FlightAware ADS-B
Mon 08:05:42 PM 32.8800 -80.1370 40° Northeast 507 583 37,000  Level FlightAware ADS-B
Mon 08:06:27 PM 32.9620 -80.0530 41° Northeast 508 585 37,000  Level FlightAware ADS-B
Mon 08:07:07 PM 33.0320 -79.9810 41° Northeast 509 586 37,000  Level FlightAware ADS-B
Mon 08:07:47 PM 33.1010 -79.9100 41° Northeast 510 587 37,000 71 Level FlightAware ADS-B
Mon 08:08:32 PM 33.1820 -79.8260 41° Northeast 508 585 37,100  Climbing FlightAware ADS-B
Mon 08:09:12 PM 33.2550 -79.7510 41° Northeast 508 585 37,000 -71 Descending FlightAware ADS-B
Mon 08:09:57 PM 33.3340 -79.6700 41° Northeast 507 583 37,000  Level FlightAware ADS-B
Mon 08:10:37 PM 33.4060 -79.5950 41° Northeast 505 581 37,000  Level FlightAware ADS-B
Mon 08:11:22 PM 33.4860 -79.5120 41° Northeast 504 580 37,000  Level FlightAware ADS-B
Mon 08:12:02 PM 33.5530 -79.4420 41° Northeast 503 579 37,000  Level FlightAware ADS-B
Mon 08:12:42 PM 33.6260 -79.3660 41° Northeast 502 578 37,000  Level FlightAware ADS-B
Mon 08:13:27 PM 33.7040 -79.2850 41° Northeast 502 578 37,000  Level FlightAware ADS-B
Mon 08:14:07 PM 33.7740 -79.2120 41° Northeast 501 577 37,000  Level FlightAware ADS-B
Mon 08:14:52 PM 33.8530 -79.1290 41° Northeast 499 574 37,000  Level FlightAware ADS-B
Mon 08:15:32 PM 33.9210 -79.0570 41° Northeast 496 571 37,000  Level FlightAware ADS-B
Mon 08:16:12 PM 33.9920 -78.9830 41° Northeast 496 571 37,000  Level FlightAware ADS-B
Mon 08:16:57 PM 34.0660 -78.9040 41° Northeast 495 570 37,000  Level FlightAware ADS-B
Mon 08:17:37 PM 34.1360 -78.8300 41° Northeast 496 571 37,000  Level FlightAware ADS-B
Mon 08:18:22 PM 34.2120 -78.7490 41° Northeast 499 574 37,000  Level FlightAware ADS-B
Mon 08:19:02 PM 34.2830 -78.6730 41° Northeast 500 575 37,000  Level FlightAware ADS-B
Mon 08:19:37 PM 34.3420 -78.6120 40° Northeast 501 577 37,000 71 Level FlightAware ADS-B
Mon 08:20:27 PM 34.4320 -78.5220 40° Northeast 498 573 37,100  Climbing FlightAware ADS-B
Mon 08:21:07 PM 34.4970 -78.4560 40° Northeast 498 573 37,000 -63 Descending FlightAware ADS-B
Mon 08:22:02 PM 34.6010 -78.3500 40° Northeast 497 572 37,000  Level FlightAware ADS-B
Mon 08:23:22 PM 34.7380 -78.2110 40° Northeast 499 574 37,000  Level FlightAware ADS-B
Mon 08:24:07 PM 34.8110 -78.1390 39° Northeast 499 574 37,000  Level FlightAware ADS-B
Mon 08:24:47 PM 34.8720 -78.0790 39° Northeast 499 574 37,000  Level FlightAware ADS-B
Mon 08:25:27 PM 34.9330 -78.0180 39° Northeast 499 574 37,000  Level FlightAware ADS-B
Mon 08:26:17 PM 35.0100 -77.9430 39° Northeast 499 574 37,000  Level FlightAware ADS-B
Mon 08:26:57 PM 35.0710 -77.8830 39° Northeast 499 574 37,000  Level FlightAware ADS-B
Mon 08:27:37 PM 35.1320 -77.8220 39° Northeast 499 574 37,000  Level FlightAware ADS-B
Mon 08:28:17 PM 35.1930 -77.7620 39° Northeast 499 574 37,000  Level FlightAware ADS-B
Mon 08:28:57 PM 35.2540 -77.7010 39° Northeast 499 574 37,000  Level FlightAware ADS-B
Mon 08:29:47 PM 35.3300 -77.6260 39° Northeast 499 574 37,000  Level FlightAware ADS-B
Mon 08:30:27 PM 35.3910 -77.5650 39° Northeast 499 574 37,000  Level FlightAware ADS-B
Mon 08:31:07 PM 35.4520 -77.5050 39° Northeast 499 574 37,000  Level FlightAware ADS-B
Mon 08:31:47 PM 35.5130 -77.4440 39° Northeast 499 574 37,000  Level FlightAware ADS-B
Mon 08:32:27 PM 35.5740 -77.3830 39° Northeast 499 574 37,000  Level FlightAware ADS-B
Mon 08:33:17 PM 35.8180 -77.1650 36° Northeast 494 568 37,000  Level FlightAware ADS-B
Mon 08:34:07 PM 35.9120 -77.0840 35° Northeast 493 567 37,000 -24 Level FlightAware ADS-B
Mon 08:34:52 PM 35.9950 -77.0090 36° Northeast 37,000 -31 Level FlightAware ADS-B
Mon 08:36:32 PM 36.1710 -76.8530 36° Northeast 37,000 -40 Level FlightAware ADS-B
Mon 08:37:22 PM 36.2580 -76.7750 36° Northeast 476 548 36,900 -63 Descending FlightAware ADS-B
Mon 08:38:07 PM 36.3270 -76.7120 36° Northeast 476 548 36,900  Level FlightAware ADS-B
Mon 08:38:47 PM 36.3880 -76.6580 35° Northeast 476 548 36,900 55 Level FlightAware ADS-B
Mon 08:39:57 PM 36.5340 -76.5260 36° Northeast 482 555 37,000 55 Climbing FlightAware ADS-B
Mon 08:40:37 PM 36.5960 -76.4700 36° Northeast 482 555 37,000  Level FlightAware ADS-B
Mon 08:41:27 PM 36.6950 -76.3800 36° Northeast 479 551 37,000  Level FlightAware ADS-B
Mon 08:42:02 PM 36.7580 -76.3230 36° Northeast 479 551 37,000  Level FlightAware ADS-B
Mon 08:42:52 PM 36.8540 -76.2350 36° Northeast 478 550 37,000  Level FlightAware ADS-B
Mon 08:43:21 PM 36.9224 -76.1858 30° Northeast 486 559 37,000  Level FlightAware ADS-B
Mon 08:43:51 PM 36.9843 -76.1514 24° Northeast 487 560 37,000  Level FlightAware ADS-B
Mon 08:44:22 PM 37.0477 -76.1180 23° Northeast 486 559 37,000  Level FlightAware ADS-B
Mon 08:45:02 PM 37.1326 -76.0729 23° Northeast 484 557 37,000  Level FlightAware ADS-B
Mon 08:45:41 PM 37.2104 -76.0312 23° Northeast 481 554 37,000  Level FlightAware ADS-B
Mon 08:46:14 PM 37.2775 -75.9953 23° Northeast 478 550 37,000  Level FlightAware ADS-B
Mon 08:46:46 PM 37.3441 -75.9600 23° Northeast 477 549 37,000  Level FlightAware ADS-B
Mon 08:47:17 PM 37.4056 -75.9271 23° Northeast 476 548 37,000  Level FlightAware ADS-B
Mon 08:47:49 PM 37.4698 -75.8922 23° Northeast 475 547 37,000  Level FlightAware ADS-B
Mon 08:48:52 PM 37.5937 -75.8131 27° Northeast 472 543 37,000  Level FlightAware ADS-B
Mon 08:49:23 PM 37.6514 -75.7697 31° Northeast 471 542 37,000  Level FlightAware ADS-B
Mon 08:49:53 PM 37.7078 -75.7276 31° Northeast 471 542 37,000  Level FlightAware ADS-B
Mon 08:50:27 PM 37.7711 -75.6801 31° Northeast 470 541 37,000  Level FlightAware ADS-B
Mon 08:50:58 PM 37.8287 -75.6368 31° Northeast 471 542 37,000  Level FlightAware ADS-B
Mon 08:51:32 PM 37.8923 -75.5886 31° Northeast 472 543 37,000  Level FlightAware ADS-B
Mon 08:52:23 PM 37.9882 -75.5160 31° Northeast 472 543 37,000  Level FlightAware ADS-B
Mon 08:52:54 PM 38.0463 -75.4720 31° Northeast 473 544 37,000 -286 Level FlightAware ADS-B
Mon 08:53:26 PM 38.1098 -75.4307 27° Northeast 473 544 36,700 -667 Descending FlightAware ADS-B
Mon 08:53:57 PM 38.1693 -75.3934 26° Northeast 469 540 36,300 -857 Descending FlightAware ADS-B
Mon 08:54:29 PM 38.2306 -75.3545 26° Northeast 469 540 35,800 -960 Descending FlightAware ADS-B
Mon 08:55:12 PM 38.3020 -75.3090 27° Northeast 466 536 35,100 -857 Descending FlightAware ADS-B
Mon 08:55:18 PM 38.3256 -75.2942 26° Northeast 470 541 35,100 -167 Level FlightAware ADS-B
Mon 08:55:48 PM 38.3839 -75.2572 26° Northeast 463 533 35,000 -100 Descending FlightAware ADS-B
Mon 08:56:18 PM 38.4421 -75.2201 27° Northeast 465 535 35,000  Level FlightAware ADS-B
Mon 08:56:50 PM 38.5042 -75.1806 26° Northeast 467 537 35,000  Level FlightAware ADS-B
Mon 08:57:30 PM 38.5806 -75.1319 26° Northeast 467 537 35,000  Level FlightAware ADS-B
Mon 08:58:01 PM 38.6392 -75.0948 26° Northeast 463 533 35,000 -188 Level FlightAware ADS-B
Mon 08:58:34 PM 38.7032 -75.0538 27° Northeast 462 532 34,800 -667 Descending FlightAware ADS-B
Mon 08:59:04 PM 38.7609 -75.0167 27° Northeast 457 526 34,300 -1,014 Descending FlightAware ADS-B
Mon 08:59:45 PM 38.8363 -74.9681 27° Northeast 454 522 33,600 -1,352 Descending FlightAware ADS-B
Mon 09:00:15 PM 38.8936 -74.9312 27° Northeast 457 526 32,700 -1,869 Descending FlightAware ADS-B
Mon 09:00:46 PM 38.9517 -74.8937 27° Northeast 465 535 31,700 -2,066 Descending FlightAware ADS-B
Mon 09:01:16 PM 39.0104 -74.8558 27° Northeast 472 543 30,600 -2,156 Descending FlightAware ADS-B
Mon 09:01:50 PM 39.0769 -74.8127 27° Northeast 473 544 29,400 -2,043 Descending FlightAware ADS-B
Mon 09:02:03 PM 39.1018 -74.7933 31° Northeast 467 537 29,000 -2,250 Descending FlightAware ADS-B
Mon 09:02:06 PM 39.1072 -74.7882 36° Northeast 466 536 28,800 -2,294 Descending FlightAware ADS-B
Mon 09:02:37 PM 39.1571 -74.7343 40° Northeast 456 525 27,700 -2,066 Descending FlightAware ADS-B
Mon 09:03:07 PM 39.2051 -74.6823 40° Northeast 446 513 26,700 -2,066 Descending FlightAware ADS-B
Mon 09:03:38 PM 39.2533 -74.6302 40° Northeast 440 506 25,600 -2,164 Descending FlightAware ADS-B
Mon 09:04:08 PM 39.3013 -74.5783 40° Northeast 448 516 24,500 -2,200 Descending FlightAware ADS-B
Mon 09:04:38 PM 39.3486 -74.5272 40° Northeast 442 509 23,400 -2,066 Descending FlightAware ADS-B
Mon 09:05:09 PM 39.3958 -74.4759 40° Northeast 436 502 22,400 -2,032 Descending FlightAware ADS-B
Mon 09:05:40 PM 39.4430 -74.4244 40° Northeast 429 494 21,300 -2,164 Descending FlightAware ADS-B
Mon 09:06:10 PM 39.4884 -74.3748 40° Northeast 426 490 20,200 -2,164 Descending FlightAware ADS-B
Mon 09:06:41 PM 39.5351 -74.3232 40° Northeast 423 487 19,100 -1,935 Descending FlightAware ADS-B
Mon 09:07:12 PM 39.5804 -74.2738 40° Northeast 412 474 18,200 -1,548 Descending FlightAware ADS-B
Mon 09:07:43 PM 39.6256 -74.2245 40° Northeast 407 468 17,500 -1,672 Descending FlightAware ADS-B
Mon 09:08:13 PM 39.6680 -74.1779 40° Northeast 392 451 16,500 -1,869 Descending FlightAware ADS-B
Mon 09:08:44 PM 39.7092 -74.1324 40° Northeast 387 445 15,600 -1,548 Descending FlightAware ADS-B
Mon 09:09:15 PM 39.7521 -74.0845 41° Northeast 390 449 14,900 -1,377 Descending FlightAware ADS-B
Mon 09:09:45 PM 39.7934 -74.0391 40° Northeast 384 442 14,200 -1,739 Descending FlightAware ADS-B
Mon 09:10:24 PM 39.8464 -73.9830 39° Northeast 378 435 12,900 -2,000 Descending FlightAware ADS-B
Mon 09:10:48 PM 39.8827 -73.9565 29° Northeast 374 430 12,100 -1,333 Descending FlightAware ADS-B
Mon 09:11:18 PM 39.9259 -73.9262 28° Northeast 341 392 11,700 -667 Descending FlightAware ADS-B
Mon 09:11:51 PM 39.9692 -73.8957 28° Northeast 314 361 11,400 -762 Descending FlightAware ADS-B
Mon 09:12:21 PM 40.0069 -73.8690 28° Northeast 299 344 10,900 -571 Descending FlightAware ADS-B
Mon 09:12:54 PM 40.0471 -73.8437 26° Northeast 299 344 10,800 -94 Descending FlightAware ADS-B
Mon 09:13:25 PM 40.0862 -73.8198 25° Northeast 297 342 10,800 -571 Level FlightAware ADS-B
Mon 09:13:57 PM 40.1257 -73.7955 25° Northeast 291 335 10,200 -1,500 Descending FlightAware ADS-B
Mon 09:14:13 PM 40.1448 -73.7838 25° Northeast 287 330 9,600 -2,063 Descending FlightAware ADS-B
Mon 09:14:29 PM 40.1638 -73.7719 26° Northeast 283 326 9,100 -1,313 Descending FlightAware ADS-B
Mon 09:14:45 PM 40.1822 -73.7605 25° Northeast 265 305 8,900 -833 Descending FlightAware ADS-B
Mon 09:15:05 PM 40.2034 -73.7472 26° Northeast 254 292 8,600 -1,000 Descending FlightAware ADS-B
Mon 09:15:21 PM 40.2192 -73.7375 25° Northeast 245 282 8,300 -1,313 Descending FlightAware ADS-B
Mon 09:15:37 PM 40.2362 -73.7273 25° Northeast 240 276 7,900 -1,615 Descending FlightAware ADS-B
Mon 09:15:47 PM 40.2469 -73.7234 16° North 240 276 7,600 -1,778 Descending FlightAware ADS-B
Mon 09:16:04 PM 40.2644 -73.7278 349° North 243 280 7,100 -1,680 Descending FlightAware ADS-B
Mon 09:16:12 PM 40.2723 -73.7353 324° Northwest 247 284 6,900 -1,500 Descending FlightAware ADS-B
Mon 09:16:16 PM 40.2753 -73.7402 309° West 248 285 6,800 -1,333 Descending FlightAware ADS-B
Mon 09:16:21 PM 40.2779 -73.7454 303° West 248 285 6,700 -947 Descending FlightAware ADS-B
Mon 09:16:35 PM 40.2854 -73.7642 298° West 243 280 6,500 -727 Descending FlightAware ADS-B
Mon 09:16:54 PM 40.2947 -73.7883 297° West 237 273 6,300 -882 Descending FlightAware ADS-B
Mon 09:17:09 PM 40.3025 -73.8083 297° West 237 273 6,000 -1,313 Descending FlightAware ADS-B
Mon 09:17:26 PM 40.3108 -73.8295 297° West 236 272 5,600 -1,313 Descending FlightAware ADS-B
Mon 09:17:41 PM 40.3183 -73.8486 297° West 237 273 5,300 -1,000 Descending FlightAware ADS-B
Mon 09:17:56 PM 40.3260 -73.8676 298° West 236 272 5,100 -1,000 Descending FlightAware ADS-B
Mon 09:18:11 PM 40.3337 -73.8864 298° West 234 269 4,800 -968 Descending FlightAware ADS-B
Mon 09:18:27 PM 40.3419 -73.9060 299° West 226 260 4,600 -563 Descending FlightAware ADS-B
Mon 09:18:43 PM 40.3496 -73.9247 298° West 219 252 4,500 -563 Descending FlightAware ADS-B
Mon 09:18:59 PM 40.3571 -73.9423 299° West 212 244 4,300 -581 Descending FlightAware ADS-B
Mon 09:19:14 PM 40.3644 -73.9593 299° West 206 237 4,200 -800 Descending FlightAware ADS-B
Mon 09:19:29 PM 40.3713 -73.9756 299° West 204 235 3,900 -968 Descending FlightAware ADS-B
Mon 09:19:45 PM 40.3782 -73.9922 299° West 202 232 3,700 -889 Descending FlightAware ADS-B
Mon 09:19:56 PM 40.3835 -74.0038 301° West 203 234 3,500 -1,059 Descending FlightAware ADS-B
Mon 09:20:02 PM 40.3880 -74.0092 318° Northwest 204 235 3,400 -1,200 Descending FlightAware ADS-B
Mon 09:20:06 PM 40.3913 -74.0118 329° Northwest 203 234 3,300 -1,333 Descending FlightAware ADS-B
Mon 09:20:11 PM 40.3952 -74.0137 340° North 203 234 3,200 -1,000 Descending FlightAware ADS-B
Mon 09:20:18 PM 40.4014 -74.0150 351° North 199 229 3,100 -857 Descending FlightAware ADS-B
Mon 09:20:25 PM 40.4080 -74.0153 358° North 195 224 3,000 -522 Descending FlightAware ADS-B
Mon 09:20:41 PM 40.4221 -74.0145 North 191 220 2,900 -316 Descending FlightAware ADS-B
Mon 09:21:22 PM 40.4589 -74.0135 North 193 222 2,700 -188 Descending FlightAware ADS-B
Mon 09:21:45 PM 40.4770 -74.0035 23° Northeast 188 216 2,700  Level FlightAware ADS-B
Mon 09:22:04 PM 40.4916 -73.9927 29° Northeast 188 216 2,700  Level FlightAware ADS-B

Login

Don't have an account? Register now (free) for customized features, flight alerts, and more!